createdAt,value
2022-10-08T00:01:01.870Z,0.65
2022-10-08T00:03:30.051Z,1.00
2022-10-08T00:06:00.935Z,1.05
2022-10-08T00:08:28.343Z,1.15
2022-10-08T00:10:56.635Z,1.17
2022-10-08T00:13:23.974Z,0.75
2022-10-08T00:15:50.926Z,1.85
2022-10-08T00:18:17.619Z,1.10
2022-10-08T00:20:44.493Z,0.80
2022-10-08T00:23:11.029Z,1.33
2022-10-08T00:25:42.471Z,2.08
2022-10-08T00:28:14.040Z,1.10
2022-10-08T00:30:41.645Z,1.00
2022-10-08T00:33:08.907Z,1.23
2022-10-08T00:35:39.078Z,1.20
2022-10-08T00:38:07.105Z,1.52
2022-10-08T00:40:43.689Z,1.42
2022-10-08T00:43:17.074Z,1.85
2022-10-08T00:45:47.005Z,1.70
2022-10-08T00:48:16.162Z,1.15
2022-10-08T00:50:42.774Z,1.48
2022-10-08T00:53:10.206Z,1.17
2022-10-08T00:55:43.126Z,1.25
2022-10-08T00:58:12.860Z,1.00
2022-10-08T01:00:39.581Z,1.40
2022-10-08T01:03:06.518Z,0.95
2022-10-08T01:06:02.745Z,1.17
2022-10-08T01:08:55.995Z,1.20
2022-10-08T01:11:28.564Z,1.13
2022-10-08T01:13:59.269Z,1.25
2022-10-08T01:16:37.975Z,1.52
2022-10-08T01:19:27.627Z,1.60
2022-10-08T01:22:20.469Z,1.25
2022-10-08T01:25:09.605Z,1.23
2022-10-08T01:27:43.114Z,1.00
2022-10-08T01:30:11.809Z,0.90
2022-10-08T01:32:41.557Z,1.10
2022-10-08T01:35:11.403Z,1.10
2022-10-08T01:37:39.395Z,1.10
2022-10-08T01:40:09.644Z,1.42
2022-10-08T01:42:37.046Z,1.25
2022-10-08T01:45:05.377Z,1.05
2022-10-08T01:47:33.098Z,0.85
2022-10-08T01:50:05.611Z,1.50
2022-10-08T01:52:33.673Z,1.23
2022-10-08T01:55:05.436Z,1.20
2022-10-08T01:57:33.338Z,1.10
2022-10-08T02:00:08.068Z,1.10
2022-10-08T02:02:34.711Z,0.88
2022-10-08T02:05:01.372Z,1.55
2022-10-08T02:07:30.132Z,1.20
2022-10-08T02:10:19.905Z,1.40
2022-10-08T02:12:46.606Z,1.60
2022-10-08T02:15:25.869Z,1.42
2022-10-08T02:18:07.132Z,1.60
2022-10-08T02:20:33.582Z,1.20
2022-10-08T02:23:04.146Z,1.13
2022-10-08T02:25:37.161Z,1.63
2022-10-08T02:28:09.891Z,0.90
2022-10-08T02:31:15.338Z,1.60
2022-10-08T02:33:47.850Z,1.45
2022-10-08T02:36:17.415Z,1.02
2022-10-08T02:38:54.450Z,1.00
2022-10-08T02:41:28.792Z,1.70
2022-10-08T02:43:57.964Z,0.80
2022-10-08T02:46:27.533Z,1.23
2022-10-08T02:49:20.501Z,1.13
2022-10-08T02:51:51.872Z,1.15
2022-10-08T02:54:19.925Z,1.42
2022-10-08T02:56:52.777Z,1.13
2022-10-08T02:59:20.086Z,1.30
2022-10-08T03:01:49.103Z,1.25
2022-10-08T03:04:22.701Z,1.48
2022-10-08T03:06:50.199Z,1.33
2022-10-08T03:09:17.379Z,1.30
2022-10-08T03:11:44.447Z,1.45
2022-10-08T03:14:12.614Z,1.38
2022-10-08T03:16:40.780Z,1.05
2022-10-08T03:19:08.088Z,1.17
2022-10-08T03:21:35.114Z,1.25
2022-10-08T03:24:01.715Z,1.15
2022-10-08T03:26:28.237Z,0.98
2022-10-08T03:28:54.782Z,0.80
2022-10-08T03:31:21.287Z,2.15
2022-10-08T03:33:51.658Z,1.02
2022-10-08T03:36:18.483Z,1.27
2022-10-08T03:38:44.991Z,1.15
2022-10-08T03:41:11.445Z,1.00
2022-10-08T03:43:38.014Z,1.00
2022-10-08T03:46:04.993Z,1.17
2022-10-08T03:48:31.666Z,1.73
2022-10-08T03:50:59.313Z,1.45
2022-10-08T03:53:26.508Z,1.27
2022-10-08T03:55:53.580Z,0.90
2022-10-08T03:58:20.584Z,1.00
2022-10-08T04:01:04.265Z,1.23
2022-10-08T04:03:31.241Z,0.70
2022-10-08T04:05:58.054Z,1.08
2022-10-08T04:08:24.789Z,1.05
2022-10-08T04:10:51.338Z,1.40
2022-10-08T04:13:18.118Z,0.90
2022-10-08T04:15:45.569Z,0.90
2022-10-08T04:18:13.956Z,0.85
2022-10-08T04:20:40.888Z,1.00
2022-10-08T04:23:08.137Z,1.20
2022-10-08T04:25:36.487Z,1.13
2022-10-08T04:28:06.075Z,1.20
2022-10-08T04:30:33.066Z,1.42
2022-10-08T04:32:59.587Z,1.63
2022-10-08T04:35:26.265Z,0.98
2022-10-08T04:37:52.855Z,1.27
2022-10-08T04:40:19.334Z,0.80
2022-10-08T04:42:50.274Z,1.25
2022-10-08T04:45:16.755Z,1.05
2022-10-08T04:47:43.473Z,0.80
2022-10-08T04:50:10.036Z,1.00
2022-10-08T04:52:36.508Z,0.98
2022-10-08T04:55:03.007Z,1.02
2022-10-08T04:57:29.549Z,1.30
2022-10-08T05:00:17.496Z,1.05
2022-10-08T05:02:42.662Z,0.93
2022-10-08T05:05:09.369Z,0.50
2022-10-08T05:07:35.879Z,0.80
2022-10-08T05:10:02.366Z,0.90
2022-10-08T05:12:28.853Z,0.82
2022-10-08T05:14:55.331Z,0.77
2022-10-08T05:17:21.821Z,0.90
2022-10-08T05:19:48.280Z,1.00
2022-10-08T05:22:14.771Z,0.60
2022-10-08T05:24:41.317Z,0.80
2022-10-08T05:27:07.806Z,0.82
2022-10-08T05:29:34.380Z,0.90
2022-10-08T05:32:01.020Z,1.48
2022-10-08T05:34:27.664Z,1.02
2022-10-08T05:36:54.240Z,1.17
2022-10-08T05:39:20.746Z,1.45
2022-10-08T05:41:47.260Z,1.05
2022-10-08T05:44:13.809Z,0.85
2022-10-08T05:46:40.725Z,1.00
2022-10-08T05:49:08.414Z,1.33
2022-10-08T05:51:35.374Z,1.15
2022-10-08T05:54:01.998Z,1.50
2022-10-08T05:56:28.589Z,1.40
2022-10-08T05:58:55.227Z,1.30
2022-10-08T06:01:23.336Z,0.80
2022-10-08T06:03:50.555Z,1.02
2022-10-08T06:06:17.077Z,1.80
2022-10-08T06:08:43.629Z,1.40
2022-10-08T06:11:10.395Z,0.75
2022-10-08T06:13:36.938Z,1.40
2022-10-08T06:16:04.970Z,0.70
2022-10-08T06:18:32.624Z,1.02
2022-10-08T06:21:06.463Z,1.05
2022-10-08T06:26:07.074Z,0.80
2022-10-08T06:28:34.621Z,1.20
2022-10-08T06:31:01.162Z,0.80
2022-10-08T06:33:28.319Z,1.00
2022-10-08T06:35:55.209Z,0.85
2022-10-08T06:38:22.023Z,1.42
2022-10-08T06:40:48.624Z,1.00
2022-10-08T06:43:18.433Z,1.10
2022-10-08T06:45:46.013Z,1.23
2022-10-08T06:48:12.931Z,1.48
2022-10-08T06:50:39.986Z,0.90
2022-10-08T06:53:07.256Z,1.30
2022-10-08T06:55:34.626Z,1.25
2022-10-08T06:58:01.216Z,0.95
2022-10-08T07:00:27.798Z,1.20
2022-10-08T07:02:54.326Z,1.15
2022-10-08T07:05:20.898Z,2.00
2022-10-08T07:07:47.362Z,0.85
2022-10-08T07:10:17.692Z,1.10
2022-10-08T07:12:45.111Z,1.83
2022-10-08T07:15:11.934Z,0.73
2022-10-08T07:17:38.452Z,0.90
2022-10-08T07:20:05.264Z,1.15
2022-10-08T07:22:31.779Z,1.35
2022-10-08T07:24:58.440Z,1.10
2022-10-08T07:27:24.975Z,0.85
2022-10-08T07:29:51.543Z,1.20
2022-10-08T07:32:18.068Z,1.00
2022-10-08T07:34:44.682Z,0.90
2022-10-08T07:37:11.311Z,1.90
2022-10-08T07:39:37.834Z,1.50
2022-10-08T07:42:04.337Z,1.60
2022-10-08T07:44:30.899Z,1.30
2022-10-08T07:46:57.424Z,1.10
2022-10-08T07:49:23.945Z,0.98
2022-10-08T07:51:50.422Z,1.27
2022-10-08T07:54:18.123Z,2.05
2022-10-08T07:56:45.455Z,1.83
2022-10-08T07:59:15.169Z,1.30
2022-10-08T08:01:41.877Z,0.70
2022-10-08T08:04:09.722Z,1.15
2022-10-08T08:06:41.171Z,1.35
2022-10-08T08:09:07.892Z,1.48
2022-10-08T08:11:34.566Z,1.42
2022-10-08T08:14:01.119Z,1.08
2022-10-08T08:16:29.288Z,1.52
2022-10-08T08:18:57.174Z,1.15
2022-10-08T08:21:25.722Z,1.05
2022-10-08T08:23:53.634Z,0.85
2022-10-08T08:26:28.823Z,0.80
2022-10-08T08:29:00.173Z,1.75
2022-10-08T08:31:26.700Z,2.00
2022-10-08T08:33:54.776Z,1.25
2022-10-08T08:36:24.219Z,2.00
2022-10-08T08:38:50.697Z,2.10
2022-10-08T08:41:20.952Z,1.80
2022-10-08T08:43:48.064Z,1.92
2022-10-08T08:46:17.326Z,1.63
2022-10-08T08:48:45.715Z,1.23
2022-10-08T08:51:12.532Z,1.00
2022-10-08T08:53:39.205Z,0.95
2022-10-08T08:56:06.762Z,0.90
2022-10-08T08:58:39.618Z,0.98
2022-10-08T09:01:09.223Z,1.20
2022-10-08T09:03:41.555Z,1.08
2022-10-08T09:06:13.158Z,1.15
2022-10-08T09:08:50.020Z,1.15
2022-10-08T09:11:18.746Z,0.85
2022-10-08T09:14:17.584Z,0.93
2022-10-08T09:16:44.156Z,0.82
2022-10-08T09:19:10.658Z,1.05
2022-10-08T09:21:37.709Z,0.80
2022-10-08T09:24:04.365Z,1.02
2022-10-08T09:26:31.975Z,0.70
2022-10-08T09:28:59.235Z,0.88
2022-10-08T09:31:32.629Z,1.05
2022-10-08T09:34:18.644Z,1.17
2022-10-08T09:37:04.644Z,1.02
2022-10-08T09:39:35.930Z,1.17
2022-10-08T09:42:08.378Z,0.88
2022-10-08T09:44:45.275Z,1.38
2022-10-08T09:47:15.907Z,0.77
2022-10-08T09:49:43.011Z,1.08
2022-10-08T09:52:19.887Z,1.10
2022-10-08T09:54:48.906Z,1.05
2022-10-08T09:57:16.869Z,1.88
2022-10-08T09:59:49.165Z,1.00
2022-10-08T10:02:32.552Z,0.90
2022-10-08T10:05:00.113Z,0.77
2022-10-08T10:07:37.683Z,0.88
2022-10-08T10:10:04.715Z,0.57
2022-10-08T10:12:36.845Z,0.60
2022-10-08T10:15:06.321Z,1.25
2022-10-08T10:17:38.602Z,0.68
2022-10-08T10:20:25.387Z,0.80
2022-10-08T10:22:57.342Z,0.70
2022-10-08T10:25:42.634Z,0.88
2022-10-08T10:28:29.392Z,0.60
2022-10-08T10:30:58.564Z,0.70
2022-10-08T10:33:26.909Z,0.52
2022-10-08T10:35:55.128Z,0.75
2022-10-08T10:38:32.497Z,0.47
2022-10-08T10:41:06.071Z,0.70
2022-10-08T10:43:38.713Z,0.50
2022-10-08T10:46:25.606Z,0.40
2022-10-08T10:48:52.208Z,0.50
2022-10-08T10:51:25.601Z,0.60
2022-10-08T10:54:03.970Z,0.30
2022-10-08T10:56:37.871Z,0.40
2022-10-08T10:59:27.511Z,0.85
2022-10-08T11:02:00.773Z,0.60
2022-10-08T11:04:35.543Z,0.50
2022-10-08T11:07:09.386Z,0.57
2022-10-08T11:09:54.913Z,0.40
2022-10-08T11:12:42.196Z,0.50
2022-10-08T11:15:16.699Z,0.30
2022-10-08T11:17:56.103Z,0.32
2022-10-08T11:20:28.919Z,0.40
2022-10-08T11:23:27.977Z,0.82
2022-10-08T11:26:25.301Z,0.40
2022-10-08T11:29:01.405Z,0.50
2022-10-08T11:31:27.933Z,0.40
2022-10-08T11:33:55.409Z,0.20
2022-10-08T11:36:45.268Z,0.65
2022-10-08T11:39:21.986Z,0.38
2022-10-08T11:41:55.235Z,0.40
2022-10-08T11:44:21.823Z,0.57
2022-10-08T11:46:48.319Z,0.45
2022-10-08T11:49:14.874Z,0.40
2022-10-08T11:51:50.208Z,0.47
2022-10-08T11:54:26.893Z,0.40
2022-10-08T11:57:11.322Z,0.60
2022-10-08T11:59:39.737Z,0.93
2022-10-08T12:02:19.458Z,0.52
2022-10-08T12:04:48.383Z,0.50
2022-10-08T12:07:14.838Z,0.40
2022-10-08T12:10:07.872Z,0.70
2022-10-08T12:12:50.023Z,0.50
2022-10-08T12:15:22.959Z,0.28
2022-10-08T12:17:56.651Z,0.40
2022-10-08T12:20:30.453Z,0.95
2022-10-08T12:23:01.314Z,0.57
2022-10-08T12:25:39.035Z,0.40
2022-10-08T12:28:20.777Z,0.47
2022-10-08T12:30:57.179Z,0.55
2022-10-08T12:33:24.761Z,0.50
2022-10-08T12:36:00.571Z,0.55
2022-10-08T12:38:47.784Z,0.43
2022-10-08T12:41:33.189Z,0.60
2022-10-08T12:44:29.142Z,0.40
2022-10-08T12:47:01.252Z,0.40
2022-10-08T12:49:43.694Z,0.85
2022-10-08T12:52:17.891Z,0.30
2022-10-08T12:55:10.643Z,0.52
2022-10-08T12:57:39.014Z,0.30
2022-10-08T13:00:07.346Z,0.50
2022-10-08T13:02:37.203Z,0.40
2022-10-08T13:05:05.088Z,0.40
2022-10-08T13:07:32.810Z,0.40
2022-10-08T13:10:00.347Z,0.40
2022-10-08T13:12:26.861Z,0.35
2022-10-08T13:15:00.817Z,0.60
2022-10-08T13:20:04.428Z,0.30
2022-10-08T13:22:31.078Z,0.52
2022-10-08T13:24:57.607Z,0.40
2022-10-08T13:27:26.908Z,0.20
2022-10-08T13:29:54.019Z,0.38
2022-10-08T13:32:25.830Z,0.50
2022-10-08T13:34:54.302Z,0.60
2022-10-08T13:37:23.641Z,1.27
2022-10-08T13:40:00.945Z,0.35
2022-10-08T13:42:35.091Z,0.25
2022-10-08T13:45:02.877Z,0.40
2022-10-08T13:47:29.414Z,0.30
2022-10-08T13:50:00.635Z,0.30
2022-10-08T13:52:28.349Z,0.38
2022-10-08T13:54:58.995Z,0.50
2022-10-08T13:57:25.563Z,0.60
2022-10-08T13:59:52.077Z,0.30
2022-10-08T14:02:18.634Z,0.20
2022-10-08T14:04:45.117Z,0.20
2022-10-08T14:07:18.154Z,0.20
2022-10-08T14:09:44.626Z,0.85
2022-10-08T14:12:11.270Z,0.30
2022-10-08T14:14:37.803Z,0.20
2022-10-08T14:17:04.308Z,0.30
2022-10-08T14:19:30.890Z,0.17
2022-10-08T14:21:57.445Z,1.48
2022-10-08T14:24:23.950Z,0.38
2022-10-08T14:26:50.514Z,0.22
2022-10-08T14:29:17.054Z,0.20
2022-10-08T14:31:43.805Z,0.50
2022-10-08T14:34:10.358Z,0.10
2022-10-08T14:36:38.130Z,0.32
2022-10-08T14:39:04.996Z,0.32
2022-10-08T14:41:32.151Z,0.25
2022-10-08T14:43:58.998Z,0.45
2022-10-08T14:46:25.604Z,0.30
2022-10-08T14:48:53.498Z,0.40
2022-10-08T14:51:20.859Z,0.30
2022-10-08T14:53:47.391Z,0.47
2022-10-08T14:56:13.912Z,0.28
2022-10-08T14:58:40.507Z,0.30
2022-10-08T15:01:07.175Z,0.35
2022-10-08T15:03:34.153Z,0.30
2022-10-08T15:06:01.018Z,0.38
2022-10-08T15:08:28.215Z,0.30
2022-10-08T15:10:54.760Z,0.50
2022-10-08T15:13:21.562Z,0.20
2022-10-08T15:15:48.156Z,0.55
2022-10-08T15:18:14.740Z,1.45
2022-10-08T15:20:41.243Z,0.60
2022-10-08T15:23:10.481Z,0.40
2022-10-08T15:25:37.172Z,0.50
2022-10-08T15:28:03.902Z,0.50
2022-10-08T15:30:30.456Z,0.95
2022-10-08T15:33:01.900Z,0.65
2022-10-08T15:35:28.438Z,0.63
2022-10-08T15:37:54.973Z,0.60
2022-10-08T15:40:21.516Z,0.93
2022-10-08T15:42:50.770Z,0.70
2022-10-08T15:45:17.348Z,0.75
2022-10-08T15:47:43.902Z,0.68
2022-10-08T15:50:10.413Z,0.70
2022-10-08T15:52:37.032Z,0.65
2022-10-08T15:55:03.734Z,0.80
2022-10-08T15:57:30.300Z,0.63
2022-10-08T15:59:58.463Z,0.70
2022-10-08T16:02:25.436Z,0.70
2022-10-08T16:04:53.394Z,0.57
2022-10-08T16:07:20.395Z,0.70
2022-10-08T16:09:47.078Z,0.70
2022-10-08T16:12:13.597Z,1.00
2022-10-08T16:14:40.132Z,0.90
2022-10-08T16:17:06.761Z,0.90
2022-10-08T16:19:33.316Z,0.90
2022-10-08T16:22:01.220Z,0.93
2022-10-08T16:24:27.898Z,0.82
2022-10-08T16:26:54.448Z,0.52
2022-10-08T16:29:21.032Z,0.73
2022-10-08T16:31:47.806Z,0.70
2022-10-08T16:34:21.257Z,0.50
2022-10-08T16:36:51.446Z,0.38
2022-10-08T16:39:19.129Z,0.32
2022-10-08T16:41:45.819Z,0.68
2022-10-08T16:44:13.380Z,0.50
2022-10-08T16:46:41.811Z,0.68
2022-10-08T16:49:34.719Z,1.35
2022-10-08T16:52:04.482Z,1.10
2022-10-08T16:54:31.378Z,0.95
2022-10-08T16:56:58.358Z,1.63
2022-10-08T16:59:25.959Z,1.35
2022-10-08T17:01:54.027Z,1.30
2022-10-08T17:04:21.357Z,1.02
2022-10-08T17:06:48.195Z,1.35
2022-10-08T17:09:14.734Z,0.57
2022-10-08T17:11:42.028Z,1.02
2022-10-08T17:14:10.291Z,1.75
2022-10-08T17:16:37.457Z,2.05
2022-10-08T17:19:04.509Z,1.38
2022-10-08T17:21:32.161Z,1.30
2022-10-08T17:23:59.339Z,1.13
2022-10-08T17:26:26.921Z,1.60
2022-10-08T17:28:53.462Z,1.60
2022-10-08T17:31:24.623Z,1.92
2022-10-08T17:33:51.422Z,1.75
2022-10-08T17:36:19.305Z,1.80
2022-10-08T17:38:47.050Z,2.20
2022-10-08T17:41:18.134Z,1.48
2022-10-08T17:43:45.350Z,2.60
2022-10-08T17:46:13.411Z,1.70
2022-10-08T17:48:40.057Z,2.70
2022-10-08T17:51:07.927Z,2.85
2022-10-08T17:53:34.564Z,3.70
2022-10-08T17:56:02.170Z,2.47
2022-10-08T17:58:33.662Z,2.63
2022-10-08T18:01:03.186Z,2.83
2022-10-08T18:03:29.863Z,3.28
2022-10-08T18:05:57.488Z,2.65
2022-10-08T18:08:24.048Z,2.80
2022-10-08T18:10:50.591Z,3.30
2022-10-08T18:13:17.334Z,2.55
2022-10-08T18:15:43.827Z,2.90
2022-10-08T18:18:10.397Z,3.22
2022-10-08T18:20:36.955Z,2.00
2022-10-08T18:23:03.871Z,2.15
2022-10-08T18:25:30.406Z,2.50
2022-10-08T18:27:57.145Z,2.30
2022-10-08T18:30:23.684Z,2.90
2022-10-08T18:32:50.725Z,3.47
2022-10-08T18:35:17.363Z,2.40
2022-10-08T18:37:44.207Z,2.53
2022-10-08T18:40:10.742Z,2.40
2022-10-08T18:42:37.339Z,2.40
2022-10-08T18:45:04.010Z,2.20
2022-10-08T18:47:30.566Z,3.00
2022-10-08T18:49:57.366Z,1.90
2022-10-08T18:52:26.918Z,2.13
2022-10-08T18:54:53.430Z,2.17
2022-10-08T18:57:19.986Z,1.85
2022-10-08T18:59:46.575Z,2.17
2022-10-08T19:02:13.153Z,2.20
2022-10-08T19:04:39.854Z,1.88
2022-10-08T19:07:06.383Z,1.38
2022-10-08T19:09:32.946Z,1.20
2022-10-08T19:12:00.922Z,1.38
2022-10-08T19:14:31.682Z,2.20
2022-10-08T19:17:00.232Z,1.30
2022-10-08T19:19:28.018Z,0.90
2022-10-08T19:21:54.998Z,1.20
2022-10-08T19:24:23.013Z,7.60
2022-10-08T19:26:49.934Z,18.13
2022-10-08T19:29:17.780Z,5.50
2022-10-08T19:31:47.754Z,5.10
2022-10-08T19:34:15.606Z,5.30
2022-10-08T19:36:42.190Z,1.95
2022-10-08T19:39:11.265Z,3.42
2022-10-08T19:41:38.358Z,1.98
2022-10-08T19:44:04.937Z,1.55
2022-10-08T19:46:31.664Z,1.60
2022-10-08T19:48:59.455Z,8.93
2022-10-08T19:51:26.959Z,2.60
2022-10-08T19:53:53.807Z,2.40
2022-10-08T19:56:21.188Z,1.73
2022-10-08T19:58:49.705Z,1.60
2022-10-08T20:01:17.692Z,1.25
2022-10-08T20:03:44.778Z,1.33
2022-10-08T20:06:12.914Z,1.55
2022-10-08T20:08:41.294Z,1.15
2022-10-08T20:11:09.854Z,1.80
2022-10-08T20:13:36.525Z,1.42
2022-10-08T20:16:04.337Z,0.90
2022-10-08T20:18:31.062Z,1.48
2022-10-08T20:21:05.913Z,2.35
2022-10-08T20:23:32.600Z,5.28
2022-10-08T20:26:14.422Z,2.05
2022-10-08T20:28:41.168Z,15.38
2022-10-08T20:31:08.769Z,13.07
2022-10-08T20:33:35.352Z,12.88
2022-10-08T20:36:03.116Z,12.20
2022-10-08T20:38:30.219Z,11.88
2022-10-08T20:40:56.883Z,11.85
2022-10-08T20:43:27.482Z,7.82
2022-10-08T20:45:54.143Z,3.58
2022-10-08T20:48:20.605Z,2.60
2022-10-08T20:50:47.150Z,3.17
2022-10-08T20:53:13.614Z,1.48
2022-10-08T20:55:40.090Z,1.60
2022-10-08T20:58:06.722Z,2.28
2022-10-08T21:00:33.234Z,2.05
2022-10-08T21:02:59.764Z,1.40
2022-10-08T21:05:26.261Z,1.50
2022-10-08T21:07:52.789Z,2.20
2022-10-08T21:10:22.009Z,2.00
2022-10-08T21:12:51.613Z,1.48
2022-10-08T21:15:18.294Z,1.73
2022-10-08T21:17:44.800Z,1.58
2022-10-08T21:20:11.295Z,1.85
2022-10-08T21:22:37.784Z,1.48
2022-10-08T21:25:04.433Z,2.50
2022-10-08T21:27:30.890Z,1.70
2022-10-08T21:29:57.343Z,1.65
2022-10-08T21:32:23.826Z,1.67
2022-10-08T21:34:50.269Z,2.20
2022-10-08T21:37:16.857Z,2.22
2022-10-08T21:39:44.601Z,2.22
2022-10-08T21:42:11.061Z,1.55
2022-10-08T21:44:37.620Z,1.75
2022-10-08T21:47:04.080Z,1.75
2022-10-08T21:49:30.620Z,3.22
2022-10-08T21:51:58.396Z,6.88
2022-10-08T21:54:24.866Z,4.57
2022-10-08T21:56:51.361Z,2.22
2022-10-08T21:59:17.903Z,2.67
2022-10-08T22:01:45.810Z,2.20
2022-10-08T22:04:12.354Z,2.70
2022-10-08T22:06:43.388Z,1.70
2022-10-08T22:09:11.878Z,2.13
2022-10-08T22:11:39.035Z,1.83
2022-10-08T22:14:05.965Z,1.75
2022-10-08T22:16:32.647Z,1.65
2022-10-08T22:18:59.293Z,1.80
2022-10-08T22:21:26.026Z,1.60
2022-10-08T22:23:52.970Z,1.63
2022-10-08T22:26:23.644Z,1.00
2022-10-08T22:28:50.324Z,1.45
2022-10-08T22:31:17.730Z,2.13
2022-10-08T22:33:44.547Z,1.40
2022-10-08T22:36:21.056Z,1.67
2022-10-08T22:38:47.592Z,1.63
2022-10-08T22:41:21.251Z,1.60
2022-10-08T22:43:48.103Z,2.20
2022-10-08T22:46:16.189Z,1.45
2022-10-08T22:48:42.814Z,1.42
2022-10-08T22:51:13.990Z,1.35
2022-10-08T22:53:40.809Z,2.53
2022-10-08T22:56:07.954Z,1.60
2022-10-08T22:58:34.923Z,1.52
2022-10-08T23:01:05.806Z,1.05
2022-10-08T23:03:32.585Z,1.73
2022-10-08T23:06:07.990Z,1.67
2022-10-08T23:08:35.578Z,1.27
2022-10-08T23:11:02.778Z,1.50
2022-10-08T23:13:29.318Z,1.75
2022-10-08T23:16:03.011Z,1.75
2022-10-08T23:18:30.299Z,1.58
2022-10-08T23:20:56.875Z,1.25
2022-10-08T23:23:23.464Z,1.17
2022-10-08T23:25:57.178Z,1.50
2022-10-08T23:28:23.771Z,1.40
2022-10-08T23:30:50.290Z,1.65
2022-10-08T23:33:16.898Z,1.67
2022-10-08T23:35:43.475Z,1.42
2022-10-08T23:38:10.101Z,1.00
2022-10-08T23:40:36.978Z,1.13
2022-10-08T23:43:03.661Z,1.33
2022-10-08T23:45:30.151Z,2.75
2022-10-08T23:47:56.711Z,1.15
2022-10-08T23:50:23.159Z,1.90
2022-10-08T23:52:50.133Z,1.60
2022-10-08T23:55:16.993Z,1.20
2022-10-08T23:57:43.445Z,1.10
